Time;durP1;ratioP1;P1;durP2;ratioP2;P2;SDS_P1;SDS_P2;PMS_P1;PMS_P2;Temp;Humidity;BMP_temperature;BMP_pressure;BME280_temperature;BME280_humidity;BME280_pressure;Samples;Min_cycle;Max_cycle;Signal;HPM_P1;HPM_P2
2022/10/05 00:00:30;;;;;;;0.40;0.40;;;;;;;6.55;70.57;100350.22;4907423;29;20060;-64
2022/10/05 00:03:24;;;;;;;1.50;0.50;;;;;;;6.37;68.81;100352.81;4907450;29;20314;-63
2022/10/05 00:05:59;;;;;;;0.47;0.47;;;;;;;6.27;69.48;100362.28;4906522;29;20082;-62
2022/10/05 00:08:49;;;;;;;1.13;0.50;;;;;;;6.29;68.96;100370.97;4907352;29;20068;-62
2022/10/05 00:11:28;;;;;;;0.50;0.50;;;;;;;6.56;68.51;100364.06;4907432;29;20092;-61
2022/10/05 00:14:35;;;;;;;0.50;0.50;;;;;;;7.21;69.56;100360.63;4892129;29;20044;-61
2022/10/05 00:17:43;;;;;;;1.55;0.60;;;;;;;7.27;66.15;100360.63;4910221;29;20044;-60
2022/10/05 00:20:25;;;;;;;0.47;0.47;;;;;;;6.89;67.33;100306.97;4911532;29;20052;-61
2022/10/05 00:23:20;;;;;;;0.43;0.40;;;;;;;7.17;67.65;100378.84;4911604;29;20095;-61
2022/10/05 00:26:08;;;;;;;1.80;0.50;;;;;;;6.74;66.55;100369.31;4910947;29;20060;-63
2022/10/05 00:28:48;;;;;;;1.52;0.50;;;;;;;6.54;68.91;100366.69;4910297;29;20111;-63
2022/10/05 00:31:48;;;;;;;1.15;0.40;;;;;;;6.46;69.05;100369.28;4911084;29;20120;-63
2022/10/05 00:34:28;;;;;;;0.45;0.40;;;;;;;6.48;68.51;100372.72;4908987;29;20329;-62
2022/10/05 00:37:08;;;;;;;0.55;0.50;;;;;;;6.65;67.96;100374.47;4864064;29;20056;-62
2022/10/05 00:40:31;;;;;;;1.77;0.60;;;;;;;6.70;68.22;100378.81;4909910;29;20218;-63
2022/10/05 00:43:36;;;;;;;2.50;0.73;;;;;;;6.84;67.25;100391.81;4910134;29;20060;-63
2022/10/05 00:46:18;;;;;;;1.98;0.90;;;;;;;6.79;65.69;100377.97;4894070;29;20068;-63
2022/10/05 00:49:18;;;;;;;1.52;0.90;;;;;;;6.83;65.48;100384.03;4893225;29;20428;-62
2022/10/05 00:52:01;;;;;;;2.88;0.90;;;;;;;6.71;64.71;100382.25;4910262;29;20052;-61
2022/10/05 00:55:00;;;;;;;2.55;0.93;;;;;;;6.94;65.74;100391.81;4909829;29;20069;-61
2022/10/05 00:58:01;;;;;;;2.88;0.80;;;;;;;6.89;63.96;100348.53;4910166;29;20044;-63
2022/10/05 01:00:53;;;;;;;1.20;0.70;;;;;;;7.57;63.81;100405.66;4909903;29;20361;-64
2022/10/05 01:03:59;;;;;;;1.30;0.75;;;;;;;8.03;65.67;100389.03;4909644;29;20306;-62
2022/10/05 01:06:46;;;;;;;0.88;0.60;;;;;;;8.19;61.29;100391.56;4892903;29;20457;-63
2022/10/05 01:09:33;;;;;;;4.47;1.50;;;;;;;7.90;60.64;100393.41;4910194;29;20062;-63
2022/10/05 01:12:35;;;;;;;2.30;0.60;;;;;;;7.71;60.50;100393.50;4909956;29;20092;-62
2022/10/05 01:15:33;;;;;;;1.38;0.55;;;;;;;7.41;60.60;100383.13;4911021;29;20052;-63
2022/10/05 01:18:22;;;;;;;0.73;0.50;;;;;;;7.39;60.34;100390.06;4909870;29;20348;-63
2022/10/05 01:21:13;;;;;;;2.30;0.50;;;;;;;7.46;60.08;100370.97;4908320;29;20120;-62
2022/10/05 01:24:42;;;;;;;2.20;0.50;;;;;;;7.57;60.35;100332.84;4909780;29;20062;-61
2022/10/05 01:28:02;;;;;;;0.52;0.52;;;;;;;7.91;60.52;100379.53;4908760;29;20104;-60
2022/10/05 01:30:46;;;;;;;1.00;0.52;;;;;;;8.08;58.85;100376.88;4909801;29;20067;-60
2022/10/05 01:33:30;;;;;;;1.77;0.68;;;;;;;8.17;59.42;100372.47;4909514;29;20138;-60
2022/10/05 01:39:19;;;;;;;3.03;0.60;;;;;;;8.11;56.81;100377.72;4857804;29;20068;-62
2022/10/05 01:42:03;;;;;;;2.15;0.65;;;;;;;7.82;58.26;100363.97;4888774;29;20636;-62
2022/10/05 01:45:04;;;;;;;1.50;0.50;;;;;;;7.77;58.10;100359.63;4888623;29;20053;-61
2022/10/05 01:51:09;;;;;;;2.10;0.60;;;;;;;8.05;57.66;100361.28;4889852;29;20053;-62
2022/10/05 01:53:59;;;;;;;1.13;0.60;;;;;;;8.12;58.35;100358.63;4866094;29;20120;-61
2022/10/05 01:56:46;;;;;;;2.53;0.50;;;;;;;7.71;58.68;100299.84;4907360;29;20104;-61
2022/10/05 01:59:55;;;;;;;3.25;0.60;;;;;;;8.12;59.10;100376.84;4906429;29;20056;-61
2022/10/05 02:03:15;;;;;;;1.15;0.50;;;;;;;7.65;57.26;100341.47;4898042;29;20079;-63
2022/10/05 02:06:10;;;;;;;0.50;0.50;;;;;;;8.00;58.36;100385.56;4906753;29;20445;-62
2022/10/05 02:08:51;;;;;;;1.33;0.50;;;;;;;7.88;57.29;100371.75;4907322;29;20067;-63
2022/10/05 02:11:39;;;;;;;0.50;0.50;;;;;;;7.29;57.68;100314.72;4875882;29;20083;-62
2022/10/05 02:14:23;;;;;;;1.27;0.60;;;;;;;7.91;58.72;100379.53;4908188;29;20064;-63
2022/10/05 02:17:19;;;;;;;1.25;0.50;;;;;;;8.09;59.23;100379.47;4892541;29;20109;-61
2022/10/05 02:20:14;;;;;;;1.60;0.70;;;;;;;7.94;58.43;100379.53;4902461;29;20069;-60
2022/10/05 02:23:00;;;;;;;1.20;0.57;;;;;;;7.88;57.18;100379.53;4915337;29;20124;-61
2022/10/05 02:25:44;;;;;;;0.57;0.47;;;;;;;7.99;56.19;100368.22;4924003;29;20066;-63
2022/10/05 02:29:02;;;;;;;0.40;0.40;;;;;;;7.81;55.23;100331.00;4922623;29;20056;-64
2022/10/05 02:31:51;;;;;;;0.82;0.50;;;;;;;8.05;55.85;100372.53;4901918;29;20056;-63
2022/10/05 02:34:42;;;;;;;1.95;0.50;;;;;;;7.94;55.14;100374.34;4924096;29;20076;-64
2022/10/05 02:38:07;;;;;;;0.98;0.52;;;;;;;7.70;56.53;100378.72;4923844;29;20079;-62
2022/10/05 02:40:57;;;;;;;0.70;0.60;;;;;;;7.52;56.98;100373.59;4924247;29;20067;-62
2022/10/05 02:44:04;;;;;;;1.13;0.40;;;;;;;7.37;58.23;100376.22;4925028;29;20056;-64
2022/10/05 02:47:04;;;;;;;2.50;0.60;;;;;;;7.14;58.31;100374.50;4924699;29;20051;-62
2022/10/05 02:49:56;;;;;;;3.47;0.70;;;;;;;7.12;59.45;100378.84;4921801;29;20086;-62
2022/10/05 02:52:52;;;;;;;0.73;0.60;;;;;;;7.19;58.66;100367.56;4922243;29;20279;-62
2022/10/05 02:55:49;;;;;;;7.45;1.08;;;;;;;7.32;59.27;100369.28;4924158;29;20055;-63
2022/10/05 02:58:59;;;;;;;0.98;0.60;;;;;;;7.42;58.19;100369.28;4923076;29;20051;-62
2022/10/05 03:05:00;;;;;;;2.55;0.50;;;;;;;7.51;57.39;100369.25;4924388;29;20060;-61
2022/10/05 03:07:55;;;;;;;1.02;0.60;;;;;;;7.55;55.33;100383.97;4923384;29;20049;-61
2022/10/05 03:10:57;;;;;;;1.63;0.50;;;;;;;7.47;55.38;100373.59;4922913;29;20048;-61
2022/10/05 03:13:53;;;;;;;5.57;0.93;;;;;;;7.52;55.83;100378.78;4923833;29;20067;-61
2022/10/05 03:16:53;;;;;;;2.90;0.60;;;;;;;7.37;55.45;100355.44;4895660;29;20329;-62
2022/10/05 03:19:56;;;;;;;0.55;0.50;;;;;;;7.64;56.31;100380.47;4924506;29;20111;-62
2022/10/05 03:22:52;;;;;;;2.38;0.73;;;;;;;7.41;55.85;100367.53;4923707;29;20059;-63
2022/10/05 03:25:52;;;;;;;0.80;0.80;;;;;;;7.60;56.21;100384.84;4906872;29;20087;-62
2022/10/05 03:28:38;;;;;;;;;;;;;;;7.53;55.53;100393.50;4921041;29;20120;-62
2022/10/05 03:31:35;;;;;;;2.20;0.70;;;;;;;7.31;56.56;100366.66;4922791;29;19927;-63
2022/10/05 03:34:20;;;;;;;1.35;0.70;;;;;;;7.50;58.05;100385.72;4922848;29;20079;-63
2022/10/05 03:37:09;;;;;;;2.67;0.88;;;;;;;7.71;59.09;100393.50;4914073;29;20103;-63
2022/10/05 03:43:26;;;;;;;5.15;0.70;;;;;;;7.41;59.85;100398.72;4923587;29;20079;-65
2022/10/05 03:46:33;;;;;;;1.92;0.57;;;;;;;7.52;59.93;100402.19;4896477;29;20088;-64
2022/10/05 03:49:34;;;;;;;3.38;0.68;;;;;;;7.45;58.94;100401.31;4924003;29;20058;-63
2022/10/05 03:52:13;;;;;;;;;;;;;;;7.33;58.29;100412.59;4926738;29;20056;-64
2022/10/05 03:55:00;;;;;;;0.50;0.50;;;;;;;7.28;60.38;100403.94;4927952;29;19931;-63
2022/10/05 03:57:42;;;;;;;1.25;0.80;;;;;;;7.31;58.79;100388.34;4927802;29;20059;-65
2022/10/05 04:00:26;;;;;;;4.15;0.90;;;;;;;7.65;61.92;100424.69;4927256;29;20067;-64
2022/10/05 04:03:29;;;;;;;3.03;1.30;;;;;;;7.86;63.59;100422.91;4927955;29;20044;-65
2022/10/05 04:06:14;;;;;;;3.85;0.80;;;;;;;7.67;60.70;100428.16;4925825;29;20056;-63
2022/10/05 04:09:22;;;;;;;1.42;0.80;;;;;;;7.31;60.11;100435.16;4927089;29;20059;-64
2022/10/05 04:12:11;;;;;;;2.80;0.70;;;;;;;6.96;63.10;100439.44;4927868;29;20328;-65
2022/10/05 04:15:02;;;;;;;2.80;0.80;;;;;;;6.84;64.90;100433.38;4924649;29;20049;-63
2022/10/05 04:18:03;;;;;;;3.33;0.93;;;;;;;6.99;66.91;100439.44;4925643;29;20321;-64
2022/10/05 04:20:54;;;;;;;1.10;0.80;;;;;;;7.07;65.93;100445.53;4927618;29;20052;-65
2022/10/05 04:23:59;;;;;;;3.70;0.70;;;;;;;6.91;63.82;100437.72;4927195;29;20052;-63
2022/10/05 04:26:54;;;;;;;2.70;1.35;;;;;;;6.99;65.82;100418.66;4927523;29;20058;-63
2022/10/05 04:29:41;;;;;;;4.13;1.27;;;;;;;7.04;67.07;100370.16;4927035;29;20051;-63
2022/10/05 04:32:40;;;;;;;8.63;4.25;;;;;;;7.46;66.76;100407.38;4926541;29;20048;-64
2022/10/05 04:36:07;;;;;;;9.48;5.28;;;;;;;7.78;65.16;100405.56;4926480;29;20062;-64
2022/10/05 04:38:59;;;;;;;6.00;4.43;;;;;;;7.95;63.38;100407.28;4926932;29;20066;-63
2022/10/05 04:42:04;;;;;;;2.50;1.00;;;;;;;8.27;63.98;100406.28;4926950;29;20052;-63
2022/10/05 04:45:18;;;;;;;;;;;;;;;;;;;;;
2022/10/05 04:48:36;;;;;;;0.55;0.50;;;;;;;8.59;60.61;100407.00;4926825;29;20610;-63
2022/10/05 04:51:36;;;;;;;1.73;1.00;;;;;;;8.79;60.73;100399.06;4927088;29;20059;-64
2022/10/05 04:54:48;;;;;;;2.33;0.73;;;;;;;8.97;59.34;100408.50;4926895;29;20056;-63
2022/10/05 04:57:34;;;;;;;1.55;0.73;;;;;;;9.23;58.75;100404.81;4926671;29;20348;-63
2022/10/05 05:04:19;;;;;;;1.48;0.73;;;;;;;9.81;57.59;100414.69;4926313;29;20064;-63
2022/10/05 05:07:35;;;;;;;1.88;0.50;;;;;;;9.92;56.06;100385.84;4924123;29;20048;-63
2022/10/05 05:14:56;;;;;;;1.33;0.70;;;;;;;10.59;56.39;100410.28;4925368;29;20060;-63
2022/10/05 05:21:45;;;;;;;3.72;1.45;;;;;;;10.30;57.17;100419.34;4925282;29;20071;-63
2022/10/05 05:24:32;;;;;;;3.95;0.93;;;;;;;10.29;57.42;100407.19;4926315;29;20060;-63
2022/10/05 05:27:42;;;;;;;2.78;1.20;;;;;;;10.52;55.74;100424.31;4925481;29;20184;-62
2022/10/05 05:33:43;;;;;;;4.53;1.88;;;;;;;10.18;56.01;100419.47;4926386;29;20079;-63
2022/10/05 05:36:59;;;;;;;7.85;3.53;;;;;;;9.90;56.09;100425.00;4925566;29;20044;-63
2022/10/05 05:39:38;;;;;;;4.55;2.22;;;;;;;9.59;56.09;100413.19;4896534;29;20106;-63
2022/10/05 05:42:22;;;;;;;;;;;;;;;9.52;56.93;100419.34;4895232;29;20077;-63
2022/10/05 05:45:17;;;;;;;1.20;0.70;;;;;;;9.46;58.32;100426.34;4896170;29;20177;-62
2022/10/05 05:51:38;;;;;;;1.48;0.90;;;;;;;9.31;58.60;100425.59;4895557;29;20148;-62
2022/10/05 05:54:35;;;;;;;2.25;0.85;;;;;;;9.25;57.20;100429.13;4894091;29;20400;-63
2022/10/05 05:57:19;;;;;;;1.77;1.08;;;;;;;8.94;54.15;100434.59;4851105;29;20041;-63
2022/10/05 06:00:11;;;;;;;3.22;1.05;;;;;;;8.66;56.32;100397.41;4892917;29;20073;-62
2022/10/05 06:03:10;;;;;;;3.38;0.70;;;;;;;8.50;54.86;100391.44;4881199;29;20048;-63
2022/10/05 06:05:54;;;;;;;2.95;0.77;;;;;;;8.79;55.09;100450.31;4894786;29;20057;-63
2022/10/05 06:08:44;;;;;;;1.02;0.70;;;;;;;8.78;54.76;100453.78;4895289;29;20144;-63
2022/10/05 06:11:30;;;;;;;2.95;1.25;;;;;;;8.76;54.77;100461.63;4895104;29;20361;-63
2022/10/05 06:14:13;;;;;;;8.32;3.25;;;;;;;8.39;55.67;100385.41;4893323;29;20099;-63
2022/10/05 06:17:01;;;;;;;15.05;6.53;;;;;;;8.75;55.64;100448.59;4911432;29;20066;-63
2022/10/05 06:19:45;;;;;;;6.30;2.15;;;;;;;8.83;54.51;100465.03;4925200;29;20333;-64
2022/10/05 06:22:44;;;;;;;1.23;1.10;;;;;;;8.45;52.29;100463.50;4924300;29;20115;-63
2022/10/05 06:25:48;;;;;;;4.20;2.00;;;;;;;8.24;51.22;100466.16;4924895;29;20508;-65
2022/10/05 06:28:32;;;;;;;;;;;;;;;8.14;52.64;100471.41;4924894;29;20064;-63
2022/10/05 06:31:30;;;;;;;6.18;1.05;;;;;;;8.06;54.38;100472.28;4924495;29;19931;-63
2022/10/05 06:34:44;;;;;;;1.50;0.98;;;;;;;7.48;53.85;100382.25;4924655;29;20094;-62
2022/10/05 06:37:39;;;;;;;1.15;0.80;;;;;;;8.02;54.75;100476.66;4925010;29;20056;-62
2022/10/05 06:41:07;;;;;;;4.55;0.98;;;;;;;7.90;53.37;100476.69;4925395;29;20917;-63
2022/10/05 06:44:02;;;;;;;3.53;0.90;;;;;;;7.86;54.53;100474.94;4924821;29;20083;-63
2022/10/05 06:47:08;;;;;;;3.47;1.10;;;;;;;7.90;54.94;100487.09;4924678;29;20115;-62
2022/10/05 06:50:02;;;;;;;3.85;0.77;;;;;;;7.56;54.90;100467.19;4924787;29;20056;-62
2022/10/05 06:52:53;;;;;;;5.50;0.93;;;;;;;7.60;55.83;100488.84;4924745;29;20040;-63
2022/10/05 06:55:53;;;;;;;1.48;0.90;;;;;;;7.65;57.71;100499.25;4924718;29;20063;-63
2022/10/05 06:58:52;;;;;;;3.35;1.25;;;;;;;7.71;57.69;100502.72;4925301;29;20055;-63
2022/10/05 07:01:39;;;;;;;0.57;0.57;;;;;;;7.74;58.06;100481.91;4924450;29;20068;-62
2022/10/05 07:04:39;;;;;;;4.57;1.15;;;;;;;7.76;58.23;100494.88;4924763;29;20119;-62
2022/10/05 07:07:35;;;;;;;3.60;0.70;;;;;;;7.68;58.72;100496.66;4924360;29;20224;-62
2022/10/05 07:10:31;;;;;;;1.40;1.00;;;;;;;7.62;59.30;100501.88;4924057;29;20056;-62
2022/10/05 07:14:24;;;;;;;1.95;1.30;;;;;;;7.60;60.49;100503.59;4875356;29;20055;-63
2022/10/05 07:17:46;;;;;;;2.58;1.13;;;;;;;7.57;61.15;100494.06;4916593;29;20080;-62
2022/10/05 07:20:33;;;;;;;2.90;1.73;;;;;;;7.52;61.57;100501.00;4922366;29;20115;-63
2022/10/05 07:23:42;;;;;;;13.80;5.15;;;;;;;7.57;62.95;100499.25;4922515;29;20067;-63
2022/10/05 07:26:43;;;;;;;7.95;3.10;;;;;;;7.59;64.40;100507.03;4924677;29;20140;-63
2022/10/05 07:29:47;;;;;;;8.35;1.90;;;;;;;7.61;64.43;100500.13;4926431;29;20361;-63
2022/10/05 07:32:34;;;;;;;;;;;;;;;7.59;64.76;100507.94;4927010;29;20096;-63
2022/10/05 07:38:51;;;;;;;32.90;10.43;;;;;;;7.55;65.88;100506.19;4926165;29;20036;-62
2022/10/05 07:42:08;;;;;;;161.20;60.42;;;;;;;6.99;66.12;100422.16;4927258;29;20052;-63
2022/10/05 07:44:55;;;;;;;302.48;113.18;;;;;;;7.44;64.92;100518.31;4928075;29;20075;-62
2022/10/05 07:47:54;;;;;;;191.38;68.90;;;;;;;7.04;64.01;100471.47;4927479;29;20067;-62
2022/10/05 07:51:02;;;;;;;194.60;67.78;;;;;;;7.32;63.79;100520.03;4926699;29;20090;-62
2022/10/05 07:53:56;;;;;;;164.45;58.58;;;;;;;7.26;64.28;100535.66;4926859;29;20044;-62
2022/10/05 07:56:48;;;;;;;67.57;23.73;;;;;;;7.25;65.01;100539.09;4912044;29;20056;-62
2022/10/05 07:59:45;;;;;;;83.40;33.17;;;;;;;7.21;65.09;100547.75;4927547;29;20108;-62
2022/10/05 08:02:43;;;;;;;12.57;6.53;;;;;;;7.12;64.66;100537.34;4927189;29;20055;-62
2022/10/05 08:05:26;;;;;;;4.65;2.00;;;;;;;7.05;63.83;100543.38;4928214;29;20056;-63
2022/10/05 08:08:40;;;;;;;14.15;5.45;;;;;;;6.86;65.27;100509.59;4900822;29;20060;-62
2022/10/05 08:11:24;;;;;;;7.70;4.07;;;;;;;6.98;64.93;100549.44;4896727;29;20123;-63
2022/10/05 08:14:05;;;;;;;10.48;5.47;;;;;;;6.89;65.64;100553.75;4927574;29;20130;-62
2022/10/05 08:16:55;;;;;;;19.05;6.93;;;;;;;6.84;66.31;100563.25;4924790;29;20068;-63
2022/10/05 08:19:42;;;;;;;14.25;7.22;;;;;;;6.82;65.79;100564.97;4927237;29;21033;-62
2022/10/05 08:22:29;;;;;;;5.07;2.63;;;;;;;6.58;65.99;100554.47;4927070;29;20059;-62
2022/10/05 08:25:33;;;;;;;10.60;2.90;;;;;;;6.54;66.51;100571.78;4940271;29;20119;-62
2022/10/05 08:28:54;;;;;;;29.15;14.77;;;;;;;6.28;66.91;100548.25;4927041;29;20048;-62
2022/10/05 08:32:04;;;;;;;13.57;7.38;;;;;;;6.07;66.33;100561.13;4926993;29;20060;-62
2022/10/05 08:34:52;;;;;;;8.55;3.95;;;;;;;6.04;64.88;100586.19;4926288;29;20060;-62
2022/10/05 08:37:38;;;;;;;8.18;3.75;;;;;;;5.80;64.99;100557.44;4926219;29;20056;-61
2022/10/05 08:40:55;;;;;;;19.50;6.20;;;;;;;5.89;64.95;100593.81;4927385;29;20056;-62
2022/10/05 08:43:51;;;;;;;14.20;6.47;;;;;;;5.49;65.99;100544.22;4926822;29;20048;-62
2022/10/05 08:47:12;;;;;;;8.57;2.78;;;;;;;5.72;67.29;100600.59;4926732;29;20079;-62
2022/10/05 08:50:28;;;;;;;3.72;1.67;;;;;;;5.55;67.91;100603.88;4926686;29;20062;-62
2022/10/05 08:53:34;;;;;;;2.60;1.20;;;;;;;5.00;68.89;100535.97;4922885;29;20468;-62
2022/10/05 08:56:45;;;;;;;9.23;1.88;;;;;;;5.17;68.80;100614.72;4938377;29;20055;-62
2022/10/05 08:59:48;;;;;;;5.13;2.70;;;;;;;5.00;69.66;100612.78;4926422;29;20048;-61
2022/10/05 09:02:46;;;;;;;3.85;3.13;;;;;;;4.61;69.85;100582.97;4926702;29;20043;-61
2022/10/05 09:06:04;;;;;;;5.78;3.80;;;;;;;4.66;70.96;100618.41;4926349;29;20066;-62
2022/10/05 09:09:38;;;;;;;6.00;3.60;;;;;;;4.60;73.20;100639.03;4924923;29;20064;-61
2022/10/05 09:12:50;;;;;;;104.95;30.83;;;;;;;4.47;73.54;100626.78;4913689;29;20059;-62
2022/10/05 09:16:09;;;;;;;60.08;13.07;;;;;;;4.34;73.97;100623.13;4924434;29;20120;-61
2022/10/05 09:19:27;;;;;;;8.55;4.00;;;;;;;4.18;74.66;100629.78;4908267;29;20067;-61
2022/10/05 09:22:15;;;;;;;11.10;6.53;;;;;;;4.12;74.66;100629.72;4926181;29;20075;-61
2022/10/05 09:25:16;;;;;;;9.13;6.03;;;;;;;3.76;75.19;100597.22;4925719;29;20060;-61
2022/10/05 09:28:07;;;;;;;8.10;3.40;;;;;;;3.96;75.92;100632.88;4925952;29;20056;-62
2022/10/05 09:30:59;;;;;;;4.80;3.40;;;;;;;3.85;76.41;100636.16;4926454;29;20048;-61
2022/10/05 09:34:19;;;;;;;14.30;6.40;;;;;;;3.93;77.32;100643.19;4926182;29;20059;-61
2022/10/05 09:37:36;;;;;;;27.65;10.15;;;;;;;3.92;78.23;100636.25;4912437;29;20048;-61
2022/10/05 09:40:56;;;;;;;13.10;4.43;;;;;;;4.04;78.33;100650.28;4908947;29;20064;-62
2022/10/05 09:44:22;;;;;;;7.00;3.15;;;;;;;4.20;78.39;100641.03;4871548;29;20053;-61
2022/10/05 09:47:34;;;;;;;4.93;1.88;;;;;;;4.32;76.37;100643.81;4924921;29;20075;-61
2022/10/05 09:50:58;;;;;;;2.28;1.52;;;;;;;4.31;75.17;100631.69;4916708;29;20124;-60
2022/10/05 09:55:15;;;;;;;7.75;2.30;;;;;;;4.32;73.85;100638.63;4917645;29;20276;-60
2022/10/05 09:58:27;;;;;;;6.65;2.80;;;;;;;4.07;72.93;100595.16;4904798;29;20058;-60
2022/10/05 10:01:31;;;;;;;5.00;2.50;;;;;;;4.11;73.67;100630.53;4951221;29;20063;-61
2022/10/05 10:04:37;;;;;;;6.28;2.45;;;;;;;4.31;73.13;100646.34;4952173;29;20055;-60
2022/10/05 10:07:57;;;;;;;6.47;2.10;;;;;;;4.29;72.91;100638.59;4913778;29;20060;-60
2022/10/05 10:11:03;;;;;;;7.45;2.30;;;;;;;4.28;73.02;100642.00;4881939;29;20464;-61
2022/10/05 10:14:13;;;;;;;4.70;1.85;;;;;;;4.33;74.25;100645.53;4911582;29;20333;-60
2022/10/05 10:17:10;;;;;;;4.25;2.10;;;;;;;4.20;73.61;100633.28;4883068;29;20052;-61
2022/10/05 10:24:13;;;;;;;2.78;1.63;;;;;;;4.20;73.72;100616.91;4908786;29;20377;-61
2022/10/05 10:27:26;;;;;;;4.93;1.90;;;;;;;4.35;73.97;100647.28;4903966;29;20053;-61
2022/10/05 10:31:05;;;;;;;2.83;1.83;;;;;;;4.27;74.20;100644.59;4860804;29;20152;-61
2022/10/05 10:34:46;;;;;;;8.50;2.53;;;;;;;4.21;74.61;100645.34;4904557;29;20056;-61
2022/10/05 10:38:01;;;;;;;4.93;2.22;;;;;;;4.03;74.45;100645.06;4903915;29;20222;-60
2022/10/05 10:41:09;;;;;;;8.75;2.40;;;;;;;3.98;74.46;100642.41;4903958;29;20111;-61
2022/10/05 10:44:21;;;;;;;6.07;2.22;;;;;;;4.05;75.57;100649.41;4909506;29;20281;-60
2022/10/05 10:47:24;;;;;;;5.15;2.33;;;;;;;3.97;74.93;100624.25;4924083;29;20123;-61
2022/10/05 10:50:25;;;;;;;;;;;;;;;4.04;75.55;100637.34;4925277;29;20052;-60
2022/10/05 10:53:14;;;;;;;3.75;2.20;;;;;;;3.96;75.60;100643.22;4924734;29;20367;-61
2022/10/05 10:56:25;;;;;;;5.50;2.25;;;;;;;3.61;75.13;100599.56;4924581;29;20048;-60
2022/10/05 10:59:44;;;;;;;4.85;1.98;;;;;;;3.70;75.86;100638.50;4924057;29;20280;-60
2022/10/05 11:03:07;;;;;;;4.68;2.25;;;;;;;3.67;77.17;100635.84;4866090;29;20064;-60
2022/10/05 11:06:11;;;;;;;4.18;2.25;;;;;;;3.60;77.53;100634.00;4866549;29;20150;-61
2022/10/05 11:09:07;;;;;;;9.98;3.22;;;;;;;3.57;78.70;100619.31;4835746;29;20065;-61
2022/10/05 11:12:22;;;;;;;10.55;2.97;;;;;;;3.67;78.17;100625.53;4851984;29;20052;-61
2022/10/05 11:15:43;;;;;;;14.93;3.40;;;;;;;3.72;78.69;100623.88;4866360;29;20089;-61
2022/10/05 11:18:46;;;;;;;8.80;3.28;;;;;;;3.73;79.11;100610.09;4866363;29;20049;-61
2022/10/05 11:22:00;;;;;;;13.65;3.78;;;;;;;3.82;79.84;100618.03;4865811;29;20069;-61
2022/10/05 11:25:22;;;;;;;18.67;7.60;;;;;;;3.86;80.89;100619.78;4866201;29;20406;-62
2022/10/05 11:28:42;;;;;;;35.10;13.20;;;;;;;3.92;80.44;100620.72;4866118;29;20117;-61
2022/10/05 11:31:54;;;;;;;27.85;11.10;;;;;;;3.99;80.67;100622.56;4864642;29;20061;-61
2022/10/05 11:38:14;;;;;;;17.58;5.07;;;;;;;4.13;80.03;100615.06;4865667;29;20057;-61
2022/10/05 11:41:37;;;;;;;9.40;2.72;;;;;;;4.23;79.54;100612.63;4924020;29;21096;-61
2022/10/05 11:44:49;;;;;;;6.05;2.55;;;;;;;4.27;78.96;100614.41;4884155;29;20085;-61
2022/10/05 11:48:00;;;;;;;6.63;2.30;;;;;;;4.13;79.01;100584.03;4865732;29;20057;-61
2022/10/05 11:51:09;;;;;;;12.00;2.88;;;;;;;4.33;79.00;100608.47;4865417;29;20379;-60
2022/10/05 11:53:59;;;;;;;10.38;3.20;;;;;;;4.26;78.47;100586.78;4865683;29;20065;-60
2022/10/05 11:56:41;;;;;;;5.38;2.13;;;;;;;4.36;77.88;100584.34;4865749;29;20729;-61
2022/10/05 11:59:48;;;;;;;14.15;2.53;;;;;;;4.35;77.89;100573.13;4865270;29;20064;-60
2022/10/05 12:03:08;;;;;;;51.58;18.00;;;;;;;4.49;76.75;100591.41;4865556;29;20083;-61
2022/10/05 12:06:06;;;;;;;46.10;17.67;;;;;;;4.50;75.31;100585.41;4865895;29;20065;-60
2022/10/05 12:08:58;;;;;;;20.95;4.75;;;;;;;4.65;73.98;100595.09;4865427;29;20065;-61
2022/10/05 12:12:02;;;;;;;12.32;3.60;;;;;;;4.33;71.77;100526.53;4865245;29;20079;-60
2022/10/05 12:15:06;;;;;;;15.23;3.47;;;;;;;4.75;71.58;100591.78;4868982;29;20069;-60
2022/10/05 12:17:57;;;;;;;12.38;2.75;;;;;;;4.86;71.28;100589.31;4869434;29;20057;-62
2022/10/05 12:20:46;;;;;;;13.68;2.67;;;;;;;4.85;70.32;100592.75;4862639;29;20053;-60
2022/10/05 12:23:39;;;;;;;15.60;2.80;;;;;;;4.92;69.08;100594.56;4874978;29;20089;-60
2022/10/05 12:30:03;;;;;;;15.13;3.70;;;;;;;4.95;69.84;100599.78;4884135;29;20211;-62
2022/10/05 12:35:57;;;;;;;19.27;4.25;;;;;;;4.65;72.06;100576.97;4906265;29;20063;-62
2022/10/05 12:38:57;;;;;;;14.93;4.80;;;;;;;4.48;73.77;100579.34;4906076;29;20116;-63
2022/10/05 12:41:49;;;;;;;21.05;7.72;;;;;;;4.47;75.63;100611.25;4905936;29;20063;-62
2022/10/05 12:44:50;;;;;;;38.20;12.65;;;;;;;4.39;76.98;100611.13;4890478;29;20064;-62
2022/10/05 12:47:47;;;;;;;32.70;12.68;;;;;;;4.33;77.92;100614.50;4904722;29;20116;-61
2022/10/05 12:51:08;;;;;;;;;;;;;;;;;;;;;
2022/10/05 12:54:12;;;;;;;25.98;10.27;;;;;;;4.02;78.60;100627.78;4905089;29;20380;-61
2022/10/05 12:59:51;;;;;;;17.15;8.40;;;;;;;4.04;79.01;100631.28;4902678;29;20121;-61
2022/10/05 13:02:47;;;;;;;18.38;6.25;;;;;;;4.12;79.60;100634.88;4905540;29;20072;-61
2022/10/05 13:05:51;;;;;;;;;;;;;;;4.11;79.29;100643.47;4906249;29;20423;-61
2022/10/05 13:09:13;;;;;;;11.07;5.13;;;;;;;4.16;80.16;100634.06;4905546;29;19931;-61
2022/10/05 13:12:11;;;;;;;9.93;4.78;;;;;;;4.29;80.42;100642.88;4894712;29;20100;-61
2022/10/05 13:15:13;;;;;;;11.03;4.90;;;;;;;4.36;80.90;100643.84;4905552;29;20052;-61
2022/10/05 13:18:06;;;;;;;14.27;4.97;;;;;;;4.35;81.24;100640.41;4905505;29;20629;-60
2022/10/05 13:20:56;;;;;;;15.65;4.90;;;;;;;4.41;81.43;100637.03;4922803;29;20063;-61
2022/10/05 13:23:51;;;;;;;11.70;5.45;;;;;;;4.52;81.50;100643.25;4925843;29;20064;-60
2022/10/05 13:26:53;;;;;;;15.85;7.45;;;;;;;4.53;81.29;100637.19;4926363;29;20055;-61
2022/10/05 13:32:29;;;;;;;13.30;6.38;;;;;;;4.41;81.71;100626.69;4926126;29;20074;-62
2022/10/05 13:35:43;;;;;;;14.98;4.68;;;;;;;4.51;81.01;100628.53;4926162;29;20063;-61
2022/10/05 13:38:33;;;;;;;8.27;3.42;;;;;;;4.42;80.06;100633.56;4926089;29;20056;-61
2022/10/05 13:41:23;;;;;;;5.85;2.80;;;;;;;4.11;79.52;100571.06;4926038;29;20044;-62
2022/10/05 13:47:56;;;;;;;5.63;2.50;;;;;;;4.35;78.39;100618.84;4925260;29;20139;-61
2022/10/05 13:51:07;;;;;;;5.88;3.10;;;;;;;4.44;77.74;100621.53;4915007;29;20067;-61
2022/10/05 13:54:00;;;;;;;6.50;2.88;;;;;;;4.36;77.60;100612.81;4886420;29;20059;-62
2022/10/05 13:56:48;;;;;;;8.23;3.67;;;;;;;4.03;77.37;100559.72;4925433;29;20083;-61
2022/10/05 14:00:00;;;;;;;9.20;3.45;;;;;;;4.39;77.81;100611.13;4925774;29;20111;-61
2022/10/05 14:06:05;;;;;;;6.20;2.33;;;;;;;4.46;77.65;100619.84;4926255;29;20052;-62
2022/10/05 14:08:53;;;;;;;8.07;2.20;;;;;;;4.44;77.81;100616.38;4924574;29;20066;-63
2022/10/05 14:11:51;;;;;;;5.28;2.38;;;;;;;4.21;77.85;100572.06;4925223;29;20115;-62
2022/10/05 14:17:40;;;;;;;4.35;2.03;;;;;;;4.42;77.38;100615.47;4923901;29;20498;-62
2022/10/05 14:20:29;;;;;;;4.97;1.67;;;;;;;4.44;77.98;100598.25;4924526;29;20107;-62
2022/10/05 14:23:18;;;;;;;1.95;1.40;;;;;;;4.28;77.97;100574.75;4894625;29;20111;-62
2022/10/05 14:26:22;;;;;;;3.08;1.40;;;;;;;4.56;77.71;100616.53;4923979;29;20411;-62
2022/10/05 14:29:12;;;;;;;3.65;1.70;;;;;;;4.60;77.21;100607.97;4924133;29;20091;-62
2022/10/05 14:32:22;;;;;;;2.30;1.20;;;;;;;4.54;77.14;100602.69;4908219;29;20070;-60
2022/10/05 14:35:31;;;;;;;5.85;2.10;;;;;;;4.63;77.00;100610.59;4915281;29;20079;-62
2022/10/05 14:38:25;;;;;;;6.20;1.70;;;;;;;4.58;77.54;100620.03;4924607;29;20274;-61
2022/10/05 14:41:19;;;;;;;2.58;1.52;;;;;;;4.52;77.98;100614.78;4924529;29;20072;-61
2022/10/05 14:44:06;;;;;;;4.60;2.30;;;;;;;4.54;78.35;100613.94;4924927;29;20064;-62
2022/10/05 14:46:57;;;;;;;3.35;2.15;;;;;;;4.43;78.79;100593.94;4924638;29;20082;-62
2022/10/05 14:49:43;;;;;;;7.25;2.08;;;;;;;4.53;79.05;100626.84;4924711;29;20104;-62
2022/10/05 14:52:57;;;;;;;6.30;2.08;;;;;;;4.53;79.52;100621.69;4901617;29;20055;-62
2022/10/05 14:56:09;;;;;;;6.93;2.83;;;;;;;4.45;80.31;100607.78;4921223;29;20055;-62
2022/10/05 14:59:30;;;;;;;6.70;2.40;;;;;;;4.47;80.46;100612.13;4923159;29;20052;-62
2022/10/05 15:02:43;;;;;;;3.80;1.58;;;;;;;4.47;80.13;100595.72;4923987;29;20075;-62
2022/10/05 15:05:25;;;;;;;5.18;1.38;;;;;;;4.45;80.14;100593.09;4925014;29;20048;-62
2022/10/05 15:08:16;;;;;;;5.70;1.63;;;;;;;4.43;80.32;100579.28;4923309;29;20092;-62
2022/10/05 15:11:00;;;;;;;2.15;1.40;;;;;;;4.41;79.79;100574.94;4924649;29;20452;-62